Time;durP1;ratioP1;P1;durP2;ratioP2;P2;SDS_P1;SDS_P2;PMS_P1;PMS_P2;Temp;Humidity;BMP_temperature;BMP_pressure;BME280_temperature;BME280_humidity;BME280_pressure;Samples;Min_cycle;Max_cycle;Signal;HPM_P1;HPM_P2
2021/10/24 00:01:41;;;;;;;29.60;13.00;;;;;;;4.94;63.37;100166.61;113692;1192;110744;-76
2021/10/24 00:04:09;;;;;;;33.10;13.30;;;;;;;4.91;63.33;100170.38;113684;1192;97638;-75
2021/10/24 00:06:37;;;;;;;33.60;13.80;;;;;;;4.90;63.45;100181.16;113448;1192;108476;-77
2021/10/24 00:09:04;;;;;;;36.10;13.90;;;;;;;4.86;63.69;100179.51;113514;1192;95896;-77
2021/10/24 00:11:32;;;;;;;35.10;13.30;;;;;;;4.83;63.47;100178.38;113622;1192;97648;-77
2021/10/24 00:14:02;;;;;;;34.20;13.70;;;;;;;4.83;63.60;100172.24;113708;1192;111132;-76
2021/10/24 00:16:36;;;;;;;35.90;14.50;;;;;;;4.81;63.43;100169.66;113574;1192;97512;-76
2021/10/24 00:19:06;;;;;;;37.60;15.10;;;;;;;4.82;63.66;100174.20;113521;1192;107548;-76
2021/10/24 00:21:34;;;;;;;37.20;15.20;;;;;;;4.82;63.76;100175.61;113565;1193;97643;-78
2021/10/24 00:24:05;;;;;;;33.20;12.70;;;;;;;4.80;63.55;100176.71;113541;1193;98798;-77
2021/10/24 00:26:33;;;;;;;33.30;12.50;;;;;;;4.78;63.68;100177.99;113670;1192;109824;-78
2021/10/24 00:29:01;;;;;;;29.90;11.80;;;;;;;4.77;63.64;100178.22;113409;1193;97540;-79
2021/10/24 00:31:29;;;;;;;31.00;13.20;;;;;;;4.75;64.06;100175.77;113373;1193;107461;-79
2021/10/24 00:33:57;;;;;;;39.90;14.10;;;;;;;4.75;63.71;100175.80;113573;1193;97645;-82
2021/10/24 00:36:27;;;;;;;28.50;11.40;;;;;;;4.74;64.00;100172.30;113509;1192;97540;-79
2021/10/24 00:38:55;;;;;;;34.00;11.50;;;;;;;4.74;64.30;100173.39;113592;1192;111289;-78
2021/10/24 00:41:25;;;;;;;31.70;12.60;;;;;;;4.74;64.11;100178.81;113666;1193;96484;-78
2021/10/24 00:43:53;;;;;;;35.70;12.70;;;;;;;4.73;63.95;100182.17;113722;1193;107077;-78
2021/10/24 00:46:25;;;;;;;32.90;11.20;;;;;;;4.73;63.81;100181.29;113712;1192;97641;-78
2021/10/24 00:49:02;;;;;;;34.00;13.80;;;;;;;4.74;65.55;100185.48;113671;1193;97633;-78
2021/10/24 00:51:30;;;;;;;32.80;11.60;;;;;;;4.73;64.64;100184.48;113359;1193;111173;-78
2021/10/24 00:53:58;;;;;;;25.50;9.80;;;;;;;4.75;64.45;100185.12;113764;1192;97750;-78
2021/10/24 00:56:29;;;;;;;27.50;10.70;;;;;;;4.76;64.54;100187.69;113680;1192;107622;-78
2021/10/24 00:58:57;;;;;;;30.80;12.40;;;;;;;4.79;64.31;100190.64;113509;1192;97613;-77
2021/10/24 01:01:25;;;;;;;27.40;10.80;;;;;;;4.81;64.62;100191.80;113600;1192;97556;-78
2021/10/24 01:03:53;;;;;;;28.90;11.00;;;;;;;4.83;64.30;100192.45;113609;1192;110136;-79
2021/10/24 01:06:21;;;;;;;27.50;11.60;;;;;;;4.86;64.56;100192.35;113655;1193;97555;-79
2021/10/24 01:08:49;;;;;;;29.90;11.10;;;;;;;4.87;64.45;100194.79;113352;1196;107357;-78
2021/10/24 01:11:17;;;;;;;29.70;12.40;;;;;;;4.88;64.52;100202.48;113649;1193;97544;-77
2021/10/24 01:13:51;;;;;;;29.80;11.20;;;;;;;4.88;64.60;100204.40;113622;1193;97523;-78
2021/10/24 01:16:21;;;;;;;30.00;11.00;;;;;;;4.88;64.51;100204.58;113428;1192;111189;-78
2021/10/24 01:18:51;;;;;;;31.20;12.40;;;;;;;4.88;64.44;100200.17;113693;1193;97644;-78
2021/10/24 01:21:21;;;;;;;29.50;12.40;;;;;;;4.91;64.46;100202.90;113635;1193;107461;-78
2021/10/24 01:23:50;;;;;;;28.60;11.30;;;;;;;4.90;64.48;100203.96;113617;1193;97638;-79
2021/10/24 01:26:19;;;;;;;31.80;12.20;;;;;;;4.92;64.47;100206.05;113717;1193;97641;-78
2021/10/24 01:28:48;;;;;;;32.70;12.80;;;;;;;4.90;64.58;100210.65;113621;1193;111215;-78
2021/10/24 01:31:16;;;;;;;28.50;11.00;;;;;;;4.88;64.60;100220.40;113733;1192;96073;-77
2021/10/24 01:33:44;;;;;;;33.60;12.20;;;;;;;4.86;64.45;100220.99;113445;1192;106530;-76
2021/10/24 01:36:15;;;;;;;29.70;11.90;;;;;;;4.85;64.34;100221.21;113698;1193;97750;-77
2021/10/24 01:38:51;;;;;;;28.70;12.50;;;;;;;4.84;64.46;100223.86;113682;1192;97656;-77
2021/10/24 01:41:24;;;;;;;33.80;13.90;;;;;;;4.84;64.39;100221.41;113366;1193;111191;-80
2021/10/24 01:43:55;;;;;;;31.20;13.30;;;;;;;4.85;64.51;100224.36;113368;1192;95811;-79
2021/10/24 01:46:24;;;;;;;32.40;13.50;;;;;;;4.86;64.50;100223.45;113679;1193;106377;-78
2021/10/24 01:48:53;;;;;;;30.90;12.50;;;;;;;4.85;64.42;100226.64;113721;1192;97652;-77
2021/10/24 01:51:22;;;;;;;28.90;12.30;;;;;;;4.84;64.46;100221.05;113614;1192;95730;-79
2021/10/24 01:53:52;;;;;;;33.20;13.30;;;;;;;4.83;64.47;100228.48;113512;1193;111333;-76
2021/10/24 01:56:21;;;;;;;35.20;14.60;;;;;;;4.81;64.51;100236.42;113588;1192;97627;-78
2021/10/24 01:58:49;;;;;;;35.30;14.80;;;;;;;4.81;64.35;100229.78;113515;1193;107455;-77
2021/10/24 02:01:21;;;;;;;32.40;14.80;;;;;;;4.79;64.56;100231.58;113415;1193;95749;-76
2021/10/24 02:03:51;;;;;;;35.30;14.40;;;;;;;4.76;64.36;100238.17;113431;1194;97653;-76
2021/10/24 02:06:19;;;;;;;37.40;14.80;;;;;;;4.75;64.49;100244.34;113756;1192;110523;-77
2021/10/24 02:08:47;;;;;;;32.30;13.90;;;;;;;4.72;64.40;100247.77;113654;1192;97527;-76
2021/10/24 02:11:18;;;;;;;34.90;13.80;;;;;;;4.69;64.57;100251.73;113720;1192;107892;-76
2021/10/24 02:13:46;;;;;;;34.20;13.00;;;;;;;4.64;64.58;100250.81;113596;1193;97623;-78
2021/10/24 02:16:14;;;;;;;33.20;13.40;;;;;;;4.60;64.72;100254.79;113739;1193;95107;-77
2021/10/24 02:18:41;;;;;;;31.00;14.20;;;;;;;4.59;64.52;100258.70;113742;1193;111178;-77
2021/10/24 02:21:12;;;;;;;34.70;13.00;;;;;;;4.57;64.60;100261.70;113695;1192;97582;-76
2021/10/24 02:23:41;;;;;;;32.30;12.50;;;;;;;4.56;64.82;100264.23;113489;1192;107614;-77
2021/10/24 02:26:11;;;;;;;34.30;12.50;;;;;;;4.55;64.64;100266.54;113824;1185;97645;-76
2021/10/24 02:28:39;;;;;;;28.70;12.20;;;;;;;4.53;64.57;100262.01;113792;1193;98003;-76
2021/10/24 02:31:07;;;;;;;33.10;13.10;;;;;;;4.53;64.68;100265.54;113679;1193;111186;-76
2021/10/24 02:33:35;;;;;;;35.60;12.80;;;;;;;4.53;64.78;100265.19;113389;1193;97619;-76
2021/10/24 02:36:07;;;;;;;30.60;12.00;;;;;;;4.53;64.74;100264.31;113782;1193;107496;-76
2021/10/24 02:38:35;;;;;;;32.90;13.00;;;;;;;4.53;64.76;100258.34;113754;1192;97702;-76
2021/10/24 02:41:07;;;;;;;34.10;12.20;;;;;;;4.52;64.92;100256.61;113707;1192;96091;-77
2021/10/24 02:43:35;;;;;;;35.20;12.30;;;;;;;4.51;64.68;100257.84;113702;1192;111134;-77
2021/10/24 02:46:07;;;;;;;33.90;13.00;;;;;;;4.50;64.72;100261.91;113773;1193;97615;-78
2021/10/24 02:48:35;;;;;;;36.60;13.00;;;;;;;4.49;64.81;100261.44;113616;1192;106174;-79
2021/10/24 02:51:03;;;;;;;31.30;11.70;;;;;;;4.47;64.94;100262.55;113657;1192;97643;-79
2021/10/24 02:53:32;;;;;;;42.20;14.00;;;;;;;4.44;64.72;100262.28;113532;1193;97616;-78
2021/10/24 02:56:01;;;;;;;37.50;13.30;;;;;;;4.41;64.88;100265.86;113740;1196;111146;-78
2021/10/24 02:58:28;;;;;;;33.50;13.40;;;;;;;4.39;64.67;100265.05;113731;1193;97620;-76
2021/10/24 03:00:56;;;;;;;37.70;13.70;;;;;;;4.36;64.97;100271.47;113691;1192;105593;-75
2021/10/24 03:03:25;;;;;;;31.20;11.60;;;;;;;4.30;65.11;100273.02;113399;1193;97626;-75
2021/10/24 03:05:53;;;;;;;31.30;13.20;;;;;;;4.24;64.97;100278.80;113481;1193;95045;-75
2021/10/24 03:08:21;;;;;;;36.30;13.80;;;;;;;4.21;65.05;100277.48;113477;1193;111154;-75
2021/10/24 03:10:52;;;;;;;35.50;13.20;;;;;;;4.18;64.92;100277.22;113551;1192;97554;-75
2021/10/24 03:13:21;;;;;;;31.80;13.10;;;;;;;4.16;65.10;100282.52;113384;1193;107482;-75
2021/10/24 03:15:53;;;;;;;33.70;13.40;;;;;;;4.14;65.07;100283.97;113576;1192;98272;-76
2021/10/24 03:18:23;;;;;;;34.80;13.40;;;;;;;4.14;64.92;100287.84;113408;1193;97551;-75
2021/10/24 03:20:50;;;;;;;34.30;13.90;;;;;;;4.13;65.16;100292.97;113512;1192;111134;-76
2021/10/24 03:23:18;;;;;;;33.00;13.10;;;;;;;4.13;64.93;100292.62;113486;1193;97680;-75
2021/10/24 03:25:50;;;;;;;30.20;13.30;;;;;;;4.14;65.39;100294.17;113725;1193;107538;-79
2021/10/24 03:28:22;;;;;;;36.20;14.30;;;;;;;4.15;65.29;100295.55;113526;1193;97560;-75
2021/10/24 03:30:50;;;;;;;41.30;13.90;;;;;;;4.15;65.10;100302.56;113453;1193;97585;-75
2021/10/24 03:33:18;;;;;;;35.80;14.90;;;;;;;4.16;65.36;100304.45;113330;1193;111225;-75
2021/10/24 03:35:46;;;;;;;35.80;14.00;;;;;;;4.18;65.14;100304.60;113365;1193;96166;-76
2021/10/24 03:38:13;;;;;;;31.80;12.70;;;;;;;4.21;65.25;100305.42;113525;1193;107500;-76
2021/10/24 03:40:41;;;;;;;33.30;14.20;;;;;;;4.21;65.58;100304.52;113582;1192;97496;-77
2021/10/24 03:43:09;;;;;;;33.80;14.60;;;;;;;4.23;65.13;100306.56;113601;1192;97623;-77
2021/10/24 03:45:37;;;;;;;37.00;13.20;;;;;;;4.25;65.65;100313.20;113567;1193;111099;-77
2021/10/24 03:48:06;;;;;;;36.30;14.50;;;;;;;4.25;65.38;100314.42;113665;1192;97680;-76
2021/10/24 03:50:34;;;;;;;35.10;14.10;;;;;;;4.27;65.39;100314.55;113422;1193;107437;-76
2021/10/24 03:53:06;;;;;;;29.50;12.50;;;;;;;4.30;65.46;100319.19;113664;1192;97954;-77
2021/10/24 03:55:34;;;;;;;29.50;13.10;;;;;;;4.32;65.56;100314.24;113549;1192;97569;-77
2021/10/24 03:58:02;;;;;;;41.50;15.20;;;;;;;4.32;66.03;100320.89;113490;1193;111195;-78
2021/10/24 04:00:30;;;;;;;35.20;13.60;;;;;;;4.31;65.56;100319.70;113486;1193;97658;-76
2021/10/24 04:03:05;;;;;;;35.90;13.70;;;;;;;4.32;65.42;100325.81;113768;1193;108548;-77
2021/10/24 04:05:37;;;;;;;32.10;13.40;;;;;;;4.33;65.71;100324.38;113680;1192;97553;-77
2021/10/24 04:08:05;;;;;;;31.90;12.80;;;;;;;4.33;65.69;100325.80;113669;1192;96638;-76
2021/10/24 04:10:33;;;;;;;36.50;14.70;;;;;;;4.33;65.74;100325.98;113732;1192;111130;-76
2021/10/24 04:13:02;;;;;;;32.70;12.30;;;;;;;4.31;65.77;100334.27;113821;1192;98094;-77
2021/10/24 04:15:30;;;;;;;32.90;14.00;;;;;;;4.31;65.72;100337.98;113717;1193;107498;-77
2021/10/24 04:17:58;;;;;;;33.20;13.20;;;;;;;4.29;65.67;100342.04;113822;1193;96701;-78
2021/10/24 04:20:25;;;;;;;30.20;13.10;;;;;;;4.29;65.83;100346.98;113446;1193;95126;-78
2021/10/24 04:22:54;;;;;;;31.50;13.60;;;;;;;4.30;65.67;100350.98;113612;1192;111100;-77
2021/10/24 04:25:25;;;;;;;38.00;13.90;;;;;;;4.29;65.83;100354.34;113860;1192;97688;-77
2021/10/24 04:27:57;;;;;;;37.70;15.40;;;;;;;4.31;65.86;100362.90;113789;1193;106515;-78
2021/10/24 04:30:27;;;;;;;34.20;14.60;;;;;;;4.34;65.65;100363.55;113522;1193;97546;-77
2021/10/24 04:32:57;;;;;;;36.20;15.10;;;;;;;4.34;66.19;100362.48;113644;1192;97573;-76
2021/10/24 04:35:25;;;;;;;33.40;14.40;;;;;;;4.34;65.89;100365.65;113708;1193;111257;-75
2021/10/24 04:37:53;;;;;;;35.50;16.20;;;;;;;4.33;66.11;100370.74;113577;1192;95042;-75
2021/10/24 04:40:23;;;;;;;32.90;15.40;;;;;;;4.31;65.88;100372.56;113592;1192;107697;-76
2021/10/24 04:42:51;;;;;;;41.60;16.10;;;;;;;4.30;66.20;100372.92;113632;1193;95154;-77
2021/10/24 04:45:19;;;;;;;36.10;17.30;;;;;;;4.27;65.87;100375.12;113513;1193;97534;-77
2021/10/24 04:47:47;;;;;;;35.70;16.90;;;;;;;4.26;65.89;100375.52;113751;1193;110953;-73
2021/10/24 04:50:14;;;;;;;40.70;17.40;;;;;;;4.24;65.80;100378.17;113756;1193;97615;-76
2021/10/24 04:52:42;;;;;;;38.70;18.20;;;;;;;4.22;65.90;100375.59;113601;1193;107506;-76
2021/10/24 04:55:11;;;;;;;34.10;15.80;;;;;;;4.21;65.99;100375.10;113746;1193;96096;-77
2021/10/24 04:57:44;;;;;;;29.20;14.80;;;;;;;4.20;66.17;100379.16;113825;1193;97619;-80
2021/10/24 05:00:17;;;;;;;37.90;16.40;;;;;;;4.17;66.15;100376.95;113790;1193;110933;-76
2021/10/24 05:02:45;;;;;;;34.30;16.40;;;;;;;4.13;66.35;100384.59;113861;1192;95042;-77
2021/10/24 05:05:15;;;;;;;35.80;18.00;;;;;;;4.10;65.86;100387.66;113785;1192;107443;-76
2021/10/24 05:07:43;;;;;;;42.00;19.00;;;;;;;4.10;66.01;100389.77;113644;1193;96886;-74
2021/10/24 05:10:14;;;;;;;44.20;18.70;;;;;;;4.10;65.97;100398.02;113817;1192;97722;-74
2021/10/24 05:12:41;;;;;;;38.00;18.50;;;;;;;4.09;66.07;100405.06;113735;1193;111326;-74
2021/10/24 05:15:14;;;;;;;43.00;18.50;;;;;;;4.10;66.56;100407.14;113544;1193;98096;-77
2021/10/24 05:17:42;;;;;;;40.10;17.70;;;;;;;4.10;66.27;100409.60;113591;1193;105700;-80
2021/10/24 05:20:13;;;;;;;40.10;18.40;;;;;;;4.12;66.35;100416.21;113741;1193;96042;-76
2021/10/24 05:22:45;;;;;;;40.20;18.20;;;;;;;4.13;66.22;100417.61;113760;1193;97636;-76
2021/10/24 05:25:12;;;;;;;36.50;16.40;;;;;;;4.13;66.44;100420.58;113660;1193;111175;-76
2021/10/24 05:27:40;;;;;;;40.10;17.00;;;;;;;4.11;66.30;100418.01;113674;1193;95039;-77
2021/10/24 05:30:10;;;;;;;37.80;18.00;;;;;;;4.11;66.20;100423.45;113626;1193;107489;-77
2021/10/24 05:32:37;;;;;;;44.40;18.10;;;;;;;4.11;66.10;100417.65;113545;1193;97632;-77
2021/10/24 05:35:05;;;;;;;42.40;17.80;;;;;;;4.12;66.35;100411.33;113691;1192;97603;-77
2021/10/24 05:37:35;;;;;;;38.00;16.10;;;;;;;4.12;66.27;100417.27;113605;1192;112197;-75
2021/10/24 05:40:03;;;;;;;35.90;16.50;;;;;;;4.12;66.27;100422.37;113289;1193;97619;-77
2021/10/24 05:42:37;;;;;;;34.90;16.90;;;;;;;4.13;66.23;100420.58;113600;1193;107465;-78
2021/10/24 05:45:07;;;;;;;39.30;18.10;;;;;;;4.14;66.27;100418.63;113444;1193;96198;-77
2021/10/24 05:47:38;;;;;;;36.70;15.40;;;;;;;4.13;66.15;100425.50;113763;1193;95094;-78
2021/10/24 05:50:07;;;;;;;36.70;16.00;;;;;;;4.14;66.46;100434.95;113771;1184;111152;-76
2021/10/24 05:52:35;;;;;;;42.60;16.90;;;;;;;4.17;66.45;100441.58;113820;1192;97540;-76
2021/10/24 05:55:07;;;;;;;39.80;18.20;;;;;;;4.19;66.45;100453.64;113727;1193;106498;-76
2021/10/24 05:57:35;;;;;;;38.40;18.00;;;;;;;4.22;66.39;100456.20;113795;1192;97674;-76
2021/10/24 06:00:03;;;;;;;38.10;18.30;;;;;;;4.24;66.47;100458.63;113719;1193;97692;-74
2021/10/24 06:02:31;;;;;;;43.80;17.60;;;;;;;4.26;66.32;100463.67;113670;1192;110980;-76
2021/10/24 06:04:59;;;;;;;38.80;18.30;;;;;;;4.28;66.46;100475.73;113700;1192;97537;-78
2021/10/24 06:07:27;;;;;;;42.10;18.70;;;;;;;4.32;66.56;100477.90;113558;1193;107564;-75
2021/10/24 06:10:01;;;;;;;46.30;18.20;;;;;;;4.33;66.42;100477.86;113430;1192;97547;-75
2021/10/24 06:15:11;;;;;;;46.60;19.00;;;;;;;4.36;66.46;100471.48;113410;1193;111062;-74
2021/10/24 06:17:40;;;;;;;40.60;18.80;;;;;;;4.36;66.29;100467.11;115323;1192;97191;-74
2021/10/24 06:20:09;;;;;;;46.40;20.00;;;;;;;4.36;66.38;100467.10;115273;1192;107875;-74
2021/10/24 06:22:38;;;;;;;37.70;18.90;;;;;;;4.36;66.31;100473.95;114099;1192;97746;-74
2021/10/24 06:25:10;;;;;;;38.40;19.10;;;;;;;4.39;66.39;100478.27;113940;1192;97598;-72
2021/10/24 06:27:43;;;;;;;44.40;19.60;;;;;;;4.40;66.53;100484.55;113630;1193;111119;-73
2021/10/24 06:30:23;;;;;;;47.70;19.50;;;;;;;4.41;66.39;100488.05;113675;1192;97548;-74
2021/10/24 06:32:52;;;;;;;38.40;17.70;;;;;;;4.45;66.54;100497.98;113555;1193;107227;-74
2021/10/24 06:35:23;;;;;;;42.30;19.20;;;;;;;4.45;66.47;100494.98;113567;1192;97585;-75
2021/10/24 06:37:51;;;;;;;38.40;17.20;;;;;;;4.45;66.79;100494.79;113619;1192;95040;-74
2021/10/24 06:40:19;;;;;;;36.80;17.50;;;;;;;4.48;66.46;100494.73;113721;1192;111050;-75
2021/10/24 06:42:47;;;;;;;35.80;15.90;;;;;;;4.51;66.56;100505.55;113729;1192;97550;-73
2021/10/24 06:45:14;;;;;;;39.90;19.10;;;;;;;4.54;66.53;100509.19;113314;1193;107219;-72
2021/10/24 06:47:42;;;;;;;39.30;19.20;;;;;;;4.55;66.60;100507.21;113304;1193;97678;-74
2021/10/24 06:50:11;;;;;;;38.70;17.40;;;;;;;4.59;66.65;100508.17;113407;1193;97734;-72
2021/10/24 06:52:39;;;;;;;42.50;18.60;;;;;;;4.65;66.68;100514.00;113236;1193;109975;-71
2021/10/24 06:55:10;;;;;;;44.10;20.80;;;;;;;4.71;66.72;100517.54;113393;1193;97696;-73
2021/10/24 06:57:58;;;;;;;41.90;20.50;;;;;;;4.78;66.75;100520.18;113403;1193;107448;-73
2021/10/24 07:00:28;;;;;;;45.30;20.10;;;;;;;4.87;66.79;100524.85;113697;1192;96510;-73
2021/10/24 07:02:57;;;;;;;41.00;18.10;;;;;;;4.98;66.83;100532.85;113326;1187;95107;-72
2021/10/24 07:05:31;;;;;;;41.00;19.40;;;;;;;5.02;66.86;100529.40;113353;1194;111168;-73
2021/10/24 07:07:59;;;;;;;40.30;20.50;;;;;;;5.04;66.86;100526.89;113324;1192;97535;-73
2021/10/24 07:10:27;;;;;;;38.50;19.30;;;;;;;5.07;66.79;100534.02;113319;1193;108455;-70
2021/10/24 07:12:55;;;;;;;42.70;21.20;;;;;;;5.08;66.91;100545.97;113408;1193;98233;-70
2021/10/24 07:15:23;;;;;;;40.40;20.70;;;;;;;5.09;66.75;100545.06;113185;1193;95685;-71
2021/10/24 07:17:53;;;;;;;40.20;20.90;;;;;;;5.10;66.72;100530.79;113328;1193;111003;-72
2021/10/24 07:20:21;;;;;;;43.20;20.30;;;;;;;5.13;66.83;100540.02;113317;1193;94933;-72
2021/10/24 07:22:48;;;;;;;41.60;19.70;;;;;;;5.16;66.82;100531.50;113431;1193;107406;-72
2021/10/24 07:25:16;;;;;;;41.90;22.40;;;;;;;5.19;66.83;100533.18;113532;1193;95503;-72
2021/10/24 07:27:44;;;;;;;44.70;21.80;;;;;;;5.20;66.83;100539.13;113397;1193;97654;-71
2021/10/24 07:30:17;;;;;;;39.10;20.00;;;;;;;5.25;66.89;100538.31;113373;1193;111147;-72
2021/10/24 07:32:45;;;;;;;41.00;19.80;;;;;;;5.27;66.84;100535.25;113366;1193;97571;-72
2021/10/24 07:35:21;;;;;;;45.00;21.40;;;;;;;5.30;66.79;100536.92;113242;1186;108999;-73
2021/10/24 07:37:49;;;;;;;42.10;20.70;;;;;;;5.36;66.87;100547.49;113240;1193;97656;-70
2021/10/24 07:40:23;;;;;;;38.40;17.60;;;;;;;5.33;66.67;100554.25;113288;1193;97663;-69
2021/10/24 07:42:51;;;;;;;39.80;19.20;;;;;;;5.33;66.78;100552.84;113337;1193;111167;-74
2021/10/24 07:45:19;;;;;;;37.20;19.80;;;;;;;5.36;66.87;100556.80;113348;1193;97501;-71
2021/10/24 07:47:50;;;;;;;40.50;19.90;;;;;;;5.38;66.82;100555.35;113293;1193;107554;-72
2021/10/24 07:50:20;;;;;;;41.50;19.60;;;;;;;5.39;66.96;100557.63;113236;1193;97660;-72
2021/10/24 07:52:54;;;;;;;37.60;18.60;;;;;;;5.43;66.91;100557.88;113268;1187;95115;-69
2021/10/24 07:55:22;;;;;;;41.80;20.90;;;;;;;5.48;66.91;100564.08;113327;1193;111192;-70
2021/10/24 07:57:50;;;;;;;40.10;20.10;;;;;;;5.48;66.90;100566.01;113366;1193;97592;-73
2021/10/24 08:00:18;;;;;;;41.60;20.90;;;;;;;5.50;66.85;100568.02;113360;1193;107685;-71
2021/10/24 08:02:51;;;;;;;40.80;20.90;;;;;;;5.55;66.96;100575.48;113315;1193;97621;-74
2021/10/24 08:05:19;;;;;;;43.70;22.30;;;;;;;5.56;66.91;100569.64;113277;1193;95766;-72
2021/10/24 08:07:47;;;;;;;39.80;22.60;;;;;;;5.57;66.83;100566.09;113445;1193;110640;-71
2021/10/24 08:10:16;;;;;;;41.50;22.10;;;;;;;5.58;66.79;100566.95;113526;1194;97651;-71
2021/10/24 08:12:48;;;;;;;40.00;21.50;;;;;;;5.57;66.72;100568.58;113653;1193;107481;-70
2021/10/24 08:15:19;;;;;;;37.70;20.20;;;;;;;5.53;66.84;100565.32;113369;1192;97534;-71
2021/10/24 08:17:48;;;;;;;36.20;17.80;;;;;;;5.53;66.81;100568.16;113628;1192;97661;-71
2021/10/24 08:20:18;;;;;;;39.40;19.80;;;;;;;5.58;66.93;100570.48;113338;1193;111170;-71
2021/10/24 08:22:46;;;;;;;37.30;19.30;;;;;;;5.65;66.96;100575.21;113250;1193;95130;-75
2021/10/24 08:25:16;;;;;;;34.20;17.50;;;;;;;5.74;66.95;100573.03;113446;1193;107259;-74
2021/10/24 08:27:48;;;;;;;37.90;18.60;;;;;;;5.83;67.00;100576.83;113253;1193;97452;-75
2021/10/24 08:30:20;;;;;;;36.00;17.90;;;;;;;5.91;66.95;100581.69;113323;1193;97580;-74
2021/10/24 08:32:48;;;;;;;35.30;17.60;;;;;;;6.00;67.02;100585.33;113636;1192;112074;-73
2021/10/24 08:35:22;;;;;;;36.90;17.80;;;;;;;6.10;66.92;100592.63;113586;1187;97758;-72
2021/10/24 08:37:55;;;;;;;38.40;18.70;;;;;;;6.19;66.92;100594.46;113381;1193;107399;-71
2021/10/24 08:40:22;;;;;;;38.20;19.10;;;;;;;6.34;67.03;100593.31;113359;1193;97562;-71
2021/10/24 08:42:59;;;;;;;32.30;16.50;;;;;;;6.49;67.09;100591.25;113591;1192;95723;-72
2021/10/24 08:45:28;;;;;;;32.40;16.00;;;;;;;6.87;67.10;100587.79;113284;1193;110958;-72
2021/10/24 08:47:57;;;;;;;29.90;14.50;;;;;;;7.36;67.30;100588.59;113569;1193;96154;-74
2021/10/24 08:50:25;;;;;;;31.30;14.90;;;;;;;7.83;67.24;100590.98;113737;1193;107527;-73
2021/10/24 08:52:56;;;;;;;29.50;14.20;;;;;;;8.25;67.06;100584.09;113588;1192;98877;-73
2021/10/24 08:55:24;;;;;;;32.30;15.60;;;;;;;8.79;67.06;100580.04;113248;1192;95132;-73
2021/10/24 08:57:53;;;;;;;32.40;15.60;;;;;;;9.35;67.10;100577.17;113359;1193;111700;-75
2021/10/24 09:00:41;;;;;;;31.80;15.50;;;;;;;9.92;67.13;100576.95;113410;1193;97639;-74
2021/10/24 09:03:09;;;;;;;26.60;13.00;;;;;;;10.38;67.01;100575.38;113425;1192;108007;-74
2021/10/24 09:05:43;;;;;;;28.50;13.20;;;;;;;10.85;66.99;100577.94;113464;1192;97593;-74
2021/10/24 09:08:17;;;;;;;30.60;15.00;;;;;;;11.43;66.80;100580.66;113545;1192;95241;-72
2021/10/24 09:10:54;;;;;;;27.50;13.80;;;;;;;12.19;66.84;100578.46;113704;1192;110875;-75
2021/10/24 09:13:27;;;;;;;30.90;14.60;;;;;;;13.02;66.70;100574.47;113406;1192;98841;-74
2021/10/24 09:15:57;;;;;;;;;;;;;;;13.79;66.35;100571.89;113749;1192;108567;-74
2021/10/24 09:18:31;;;;;;;31.00;14.40;;;;;;;14.31;65.34;100573.08;113763;1193;95716;-73
2021/10/24 09:21:29;;;;;;;26.80;13.70;;;;;;;14.48;65.31;100577.70;113781;1192;95712;-73
2021/10/24 09:24:06;;;;;;;28.30;13.00;;;;;;;14.39;64.97;100581.87;113273;1193;111182;-75
2021/10/24 09:26:34;;;;;;;28.90;14.20;;;;;;;13.87;64.75;100582.77;113758;1193;97669;-79
2021/10/24 09:29:12;;;;;;;27.10;12.10;;;;;;;13.49;64.88;100582.59;113750;1193;107509;-76
2021/10/24 09:31:52;;;;;;;29.90;12.60;;;;;;;13.14;64.70;100585.73;113707;1192;97625;-76
2021/10/24 09:34:23;;;;;;;28.90;13.50;;;;;;;12.85;64.88;100589.36;113358;1193;98281;-74
2021/10/24 09:36:58;;;;;;;30.00;14.00;;;;;;;12.88;65.44;100587.23;113722;1193;111147;-75
2021/10/24 09:39:37;;;;;;;30.10;14.60;;;;;;;12.92;65.44;100590.03;113647;1193;97654;-76
2021/10/24 09:42:13;;;;;;;28.20;14.60;;;;;;;13.05;65.64;100591.56;113728;1193;107320;-75
2021/10/24 09:45:06;;;;;;;28.60;14.80;;;;;;;13.19;65.39;100593.08;113622;1193;97656;-77
2021/10/24 09:47:42;;;;;;;28.80;14.20;;;;;;;13.23;65.10;100594.79;113690;1192;95016;-77
2021/10/24 09:50:32;;;;;;;29.70;14.00;;;;;;;13.16;64.89;100593.42;113802;1192;111428;-78
2021/10/24 09:53:20;;;;;;;31.90;14.70;;;;;;;13.17;64.87;100594.62;113548;1192;96206;-78
2021/10/24 09:56:03;;;;;;;28.10;14.20;;;;;;;12.97;64.70;100599.34;113550;1192;107546;-77
2021/10/24 09:58:35;;;;;;;29.60;13.00;;;;;;;12.62;64.39;100593.33;113687;1192;97571;-74
2021/10/24 10:01:05;;;;;;;29.50;13.40;;;;;;;12.42;64.39;100604.06;113733;1192;97556;-78
2021/10/24 10:03:36;;;;;;;30.90;14.90;;;;;;;12.26;64.37;100601.36;113282;1192;111221;-81
2021/10/24 10:06:06;;;;;;;31.80;15.20;;;;;;;11.89;64.12;100602.63;113558;1193;97491;-77
2021/10/24 10:08:44;;;;;;;29.00;14.00;;;;;;;11.60;64.25;100604.48;113416;1193;107482;-78
2021/10/24 10:11:24;;;;;;;28.70;13.90;;;;;;;11.54;64.20;100607.12;113523;1192;97752;-76
2021/10/24 10:14:00;;;;;;;28.60;14.40;;;;;;;11.58;64.09;100608.36;113667;1192;97582;-79
2021/10/24 10:16:38;;;;;;;30.10;12.20;;;;;;;11.48;63.75;100607.25;113726;1192;112197;-74
2021/10/24 10:19:10;;;;;;;29.90;15.50;;;;;;;11.22;63.90;100608.42;113351;1192;97479;-76
2021/10/24 10:21:45;;;;;;;27.30;13.80;;;;;;;11.05;63.73;100604.80;113572;1192;107494;-74
2021/10/24 10:24:36;;;;;;;29.40;13.40;;;;;;;10.90;63.81;100607.51;113556;1192;97652;-77
2021/10/24 10:27:34;;;;;;;31.20;14.50;;;;;;;10.73;63.68;100604.63;113236;1192;97665;-75
2021/10/24 10:30:15;;;;;;;31.00;13.40;;;;;;;10.53;63.73;100603.42;113482;1192;110885;-75
2021/10/24 10:32:49;;;;;;;27.00;14.40;;;;;;;10.56;63.69;100599.58;113616;1193;97566;-74
2021/10/24 10:35:28;;;;;;;27.60;14.00;;;;;;;10.64;63.77;100596.69;113427;1193;107494;-72
2021/10/24 10:37:59;;;;;;;27.80;13.60;;;;;;;10.66;63.54;100595.69;113433;1192;97657;-75
2021/10/24 10:40:40;;;;;;;28.90;12.20;;;;;;;10.66;63.38;100595.51;113298;1192;97672;-74
2021/10/24 10:43:18;;;;;;;21.50;9.60;;;;;;;10.68;63.48;100591.33;113242;1192;111201;-75
2021/10/24 10:45:56;;;;;;;27.00;11.50;;;;;;;10.76;63.36;100592.90;113248;1193;97644;-73
2021/10/24 10:48:27;;;;;;;28.80;13.90;;;;;;;10.86;63.16;100588.36;113629;1194;106549;-76
2021/10/24 10:51:02;;;;;;;;;;;;;;;10.89;63.09;100585.71;113564;1193;97771;-74
2021/10/24 10:53:30;;;;;;;22.90;10.30;;;;;;;11.00;63.34;100593.36;113737;1192;95663;-76
2021/10/24 10:55:59;;;;;;;28.30;11.20;;;;;;;11.15;63.29;100588.88;113638;1192;111106;-76
2021/10/24 10:58:46;;;;;;;27.00;11.90;;;;;;;11.23;63.14;100596.09;113372;1193;95823;-76
2021/10/24 11:01:24;;;;;;;24.10;11.10;;;;;;;11.23;63.02;100597.55;113543;1192;107081;-74
2021/10/24 11:03:59;;;;;;;23.80;11.20;;;;;;;11.13;62.98;100598.38;113876;1192;96903;-78
2021/10/24 11:06:47;;;;;;;24.90;10.10;;;;;;;11.07;62.74;100593.88;113742;1193;96997;-78
2021/10/24 11:09:40;;;;;;;22.70;9.30;;;;;;;10.98;62.69;100596.27;113688;1193;111194;-76
2021/10/24 11:12:28;;;;;;;26.50;10.00;;;;;;;10.83;62.37;100596.30;113698;1192;95072;-74
2021/10/24 11:15:29;;;;;;;25.50;11.00;;;;;;;10.76;62.10;100595.23;113857;1192;107763;-83
2021/10/24 11:18:02;;;;;;;18.10;6.70;;;;;;;10.74;62.34;100594.98;113900;1193;97660;-79
2021/10/24 11:20:41;;;;;;;16.20;5.50;;;;;;;10.78;62.20;100592.84;113838;1192;97559;-77
2021/10/24 11:23:13;;;;;;;15.80;5.50;;;;;;;10.88;62.23;100595.73;113732;1193;111257;-77
2021/10/24 11:25:53;;;;;;;16.20;5.30;;;;;;;11.01;62.25;100585.14;113419;1193;97767;-79